Terminal Aerodrome Forecast
Issued by NWS Birmingham, AL

Home | Current Version | Previous Version | Text Only | Print | Product List | Glossary On
Versions: 1 2 3 4 5 6 7 8 9 10 11 12
292
FTUS44 KBMX 071120
TAFBHM
TAF
KBHM 071120Z 0712/0812 33003KT P6SM SKC
     FM071700 28007KT P6SM SCT250
     FM080600 22004KT P6SM BKN050 BKN150=

USA.gov is the U.S. government's official web portal to all federal, state and local government web resources and services.